Time;durP1;ratioP1;P1;durP2;ratioP2;P2;SDS_P1;SDS_P2;PMS_P1;PMS_P2;Temp;Humidity;BMP_temperature;BMP_pressure;BME280_temperature;BME280_humidity;BME280_pressure;Samples;Min_cycle;Max_cycle;Signal;HPM_P1;HPM_P2
2022/11/23 00:01:31;;;;;;;;;;;21.30;87.80;;;;;;5095716;28;20023;-43
2022/11/23 00:03:59;;;;;;;;;;;21.30;87.80;;;;;;5077596;28;19908;-43
2022/11/23 00:06:25;;;;;;;;;;;21.30;87.80;;;;;;5095605;28;19923;-42
2022/11/23 00:08:51;;;;;;;;;;;21.30;88.00;;;;;;5095442;28;19981;-43
2022/11/23 00:11:16;;;;;;;;;;;21.30;87.90;;;;;;5095070;28;19908;-43
2022/11/23 00:13:42;;;;;;;;;;;21.30;87.80;;;;;;5095435;28;19914;-45
2022/11/23 00:16:09;;;;;;;;;;;21.30;88.00;;;;;;5095390;28;20014;-43
2022/11/23 00:18:34;;;;;;;;;;;21.30;88.00;;;;;;5095060;28;19948;-45
2022/11/23 00:21:04;;;;;;;;;;;21.30;88.00;;;;;;5095577;28;19915;-44
2022/11/23 00:23:30;;;;;;;;;;;21.20;88.00;;;;;;5094822;28;19908;-42
2022/11/23 00:25:55;;;;;;;;;;;21.20;87.90;;;;;;5095084;28;19923;-43
2022/11/23 00:28:21;;;;;;;;;;;21.30;88.10;;;;;;5094909;28;19909;-44
2022/11/23 00:30:49;;;;;;;;;;;21.20;88.10;;;;;;5095195;28;19958;-45
2022/11/23 00:33:15;;;;;;;;;;;21.20;88.10;;;;;;5095031;28;19912;-44
2022/11/23 00:35:40;;;;;;;;;;;21.20;88.10;;;;;;5095003;28;20010;-46
2022/11/23 00:38:06;;;;;;;;;;;21.20;88.10;;;;;;5094753;28;19915;-43
2022/11/23 00:40:31;;;;;;;;;;;21.20;88.10;;;;;;5094699;28;19908;-43
2022/11/23 00:42:57;;;;;;;;;;;21.20;88.10;;;;;;5094983;28;19974;-43
2022/11/23 00:45:22;;;;;;;;;;;21.20;88.10;;;;;;5094333;28;19927;-43
2022/11/23 00:47:48;;;;;;;;;;;21.20;88.00;;;;;;5094534;28;20005;-43
2022/11/23 00:50:14;;;;;;;;;;;21.20;88.10;;;;;;5094740;28;19908;-46
2022/11/23 00:52:39;;;;;;;;;;;21.20;88.10;;;;;;5094489;28;19908;-46
2022/11/23 00:55:05;;;;;;;;;;;21.30;88.20;;;;;;5094645;28;19908;-44
2022/11/23 00:57:32;;;;;;;;;;;21.30;88.20;;;;;;5094703;28;19951;-44
2022/11/23 00:59:57;;;;;;;;;;;21.30;88.20;;;;;;5094352;28;20280;-43
2022/11/23 01:02:23;;;;;;;;;;;21.30;88.20;;;;;;5094212;28;19912;-44
2022/11/23 01:04:48;;;;;;;;;;;21.30;88.20;;;;;;5094191;28;20034;-42
2022/11/23 01:07:13;;;;;;;;;;;21.30;88.20;;;;;;5094225;28;19916;-44
2022/11/23 01:09:39;;;;;;;;;;;21.30;88.20;;;;;;5093978;28;19924;-43
2022/11/23 01:12:04;;;;;;;;;;;21.30;88.20;;;;;;5094493;28;20347;-43
2022/11/23 01:14:30;;;;;;;;;;;21.30;88.20;;;;;;5094427;28;19908;-45
2022/11/23 01:16:55;;;;;;;;;;;21.30;88.20;;;;;;5094660;28;20266;-43
2022/11/23 01:19:21;;;;;;;;;;;21.30;88.20;;;;;;5076303;28;19908;-43
2022/11/23 01:21:48;;;;;;;;;;;21.30;88.20;;;;;;5092695;28;21324;-44
2022/11/23 01:24:16;;;;;;;;;;;21.30;88.20;;;;;;5094114;28;19946;-44
2022/11/23 01:26:43;;;;;;;;;;;21.30;88.10;;;;;;5093849;28;20318;-43
2022/11/23 01:29:08;;;;;;;;;;;21.30;88.20;;;;;;5093995;28;19959;-44
2022/11/23 01:31:34;;;;;;;;;;;21.30;88.30;;;;;;5093886;28;19908;-42
2022/11/23 01:34:01;;;;;;;;;;;21.30;88.20;;;;;;5093842;28;19951;-42
2022/11/23 01:36:27;;;;;;;;;;;21.30;88.30;;;;;;5093843;28;20263;-44
2022/11/23 01:38:53;;;;;;;;;;;21.30;88.40;;;;;;5094060;28;19908;-42
2022/11/23 01:41:23;;;;;;;;;;;21.20;88.30;;;;;;5093782;28;19912;-43
2022/11/23 01:43:50;;;;;;;;;;;21.20;88.30;;;;;;5094002;28;19916;-42
2022/11/23 01:46:16;;;;;;;;;;;21.30;88.40;;;;;;5093920;28;19993;-44
2022/11/23 01:48:44;;;;;;;;;;;21.20;88.30;;;;;;5093982;28;19916;-43
2022/11/23 01:51:13;;;;;;;;;;;21.30;88.30;;;;;;5093661;28;20318;-43
2022/11/23 01:53:39;;;;;;;;;;;21.30;88.20;;;;;;5094410;28;19914;-43
2022/11/23 01:56:05;;;;;;;;;;;21.20;88.20;;;;;;5093672;28;19912;-42
2022/11/23 01:58:33;;;;;;;;;;;21.20;88.30;;;;;;5094092;28;20002;-42
2022/11/23 02:00:58;;;;;;;;;;;21.30;88.20;;;;;;5093931;28;19908;-44
2022/11/23 02:03:24;;;;;;;;;;;21.20;88.10;;;;;;5093577;28;19931;-42
2022/11/23 02:05:53;;;;;;;;;;;21.20;88.40;;;;;;5075677;28;19912;-44
2022/11/23 02:08:19;;;;;;;;;;;21.20;88.40;;;;;;5086713;28;20394;-45
2022/11/23 02:10:44;;;;;;;;;;;21.20;88.30;;;;;;5089171;28;19912;-44
2022/11/23 02:13:11;;;;;;;;;;;21.20;88.20;;;;;;5075680;28;19908;-46
2022/11/23 02:15:37;;;;;;;;;;;21.20;88.30;;;;;;5093078;28;19908;-43
2022/11/23 02:18:04;;;;;;;;;;;21.20;88.30;;;;;;5075702;28;19908;-43
2022/11/23 02:20:30;;;;;;;;;;;21.20;88.30;;;;;;5093437;28;19948;-47
2022/11/23 02:22:55;;;;;;;;;;;21.20;88.30;;;;;;5093589;28;19908;-48
2022/11/23 02:25:36;;;;;;;;;;;21.20;88.40;;;;;;5073529;28;20049;-48
2022/11/23 02:28:02;;;;;;;;;;;21.20;88.30;;;;;;5091436;28;20383;-46
2022/11/23 02:30:29;;;;;;;;;;;21.20;88.50;;;;;;5091330;28;19943;-45
2022/11/23 02:32:54;;;;;;;;;;;21.10;88.40;;;;;;5091644;28;19909;-44
2022/11/23 02:35:20;;;;;;;;;;;21.10;88.40;;;;;;5094929;28;19908;-43
2022/11/23 02:37:46;;;;;;;;;;;20.80;82.70;;;;;;5095355;28;19908;-46
2022/11/23 02:40:18;;;;;;;;;;;20.90;85.90;;;;;;5095406;28;20001;-44
2022/11/23 02:42:44;;;;;;;;;;;20.90;87.20;;;;;;5097329;28;19910;-43
2022/11/23 02:45:28;;;;;;;;;;;21.00;88.10;;;;;;5096815;28;20031;-42
2022/11/23 02:47:53;;;;;;;;;;;21.10;88.10;;;;;;5096893;28;19973;-43
2022/11/23 02:50:19;;;;;;;;;;;21.00;88.20;;;;;;5096916;28;19912;-43
2022/11/23 02:52:44;;;;;;;;;;;21.00;88.10;;;;;;5097173;28;19908;-44
2022/11/23 02:55:10;;;;;;;;;;;21.00;88.30;;;;;;5097427;28;20007;-44
2022/11/23 02:57:35;;;;;;;;;;;21.00;88.40;;;;;;5096712;28;20252;-45
2022/11/23 03:00:01;;;;;;;;;;;21.00;88.40;;;;;;5096755;28;19916;-42
2022/11/23 03:02:26;;;;;;;;;;;21.00;88.30;;;;;;5096626;28;19908;-43
2022/11/23 03:04:52;;;;;;;;;;;21.00;88.40;;;;;;5096883;28;20358;-42
2022/11/23 03:07:17;;;;;;;;;;;21.00;88.40;;;;;;5096677;28;19916;-43
2022/11/23 03:09:43;;;;;;;;;;;21.10;88.50;;;;;;5096974;28;19926;-43
2022/11/23 03:12:08;;;;;;;;;;;21.00;88.50;;;;;;5097140;28;20295;-43
2022/11/23 03:14:34;;;;;;;;;;;21.00;88.50;;;;;;5096685;28;19914;-42
2022/11/23 03:16:59;;;;;;;;;;;21.00;88.50;;;;;;5096676;28;19955;-43
2022/11/23 03:19:25;;;;;;;;;;;21.10;89.10;;;;;;5096392;28;19908;-43
2022/11/23 03:21:50;;;;;;;;;;;21.00;88.50;;;;;;5096573;28;19908;-43
2022/11/23 03:24:16;;;;;;;;;;;21.10;88.70;;;;;;5096290;28;19960;-42
2022/11/23 03:26:42;;;;;;;;;;;21.00;88.60;;;;;;5096124;28;20279;-43
2022/11/23 03:29:07;;;;;;;;;;;21.00;88.60;;;;;;5096390;28;19988;-43
2022/11/23 03:31:33;;;;;;;;;;;21.10;88.60;;;;;;5096404;28;19908;-43
2022/11/23 03:33:58;;;;;;;;;;;21.00;88.60;;;;;;5096097;28;20471;-42
2022/11/23 03:36:24;;;;;;;;;;;21.00;88.60;;;;;;5078232;28;20424;-45
2022/11/23 03:38:49;;;;;;;;;;;21.00;88.50;;;;;;5095969;28;20267;-43
2022/11/23 03:41:15;;;;;;;;;;;21.10;88.60;;;;;;5096232;28;19908;-44
2022/11/23 03:43:40;;;;;;;;;;;21.00;88.40;;;;;;5095943;28;19915;-44
2022/11/23 03:46:06;;;;;;;;;;;21.00;88.50;;;;;;5094895;28;19916;-42
2022/11/23 03:48:31;;;;;;;;;;;21.00;88.50;;;;;;5095861;28;19908;-42
2022/11/23 03:50:57;;;;;;;;;;;21.00;88.50;;;;;;5096067;28;19960;-43
2022/11/23 03:53:22;;;;;;;;;;;21.00;88.60;;;;;;5095968;28;20248;-43
2022/11/23 03:55:47;;;;;;;;;;;21.00;88.60;;;;;;5095684;28;20280;-42
2022/11/23 03:58:13;;;;;;;;;;;21.00;88.60;;;;;;5096144;28;19908;-44
2022/11/23 04:00:39;;;;;;;;;;;21.00;88.50;;;;;;5095765;28;19916;-44
2022/11/23 04:03:05;;;;;;;;;;;21.00;88.60;;;;;;5095447;28;19908;-42
2022/11/23 04:05:30;;;;;;;;;;;21.00;88.60;;;;;;5095307;28;20025;-44
2022/11/23 04:07:56;;;;;;;;;;;21.00;88.60;;;;;;5095436;28;19916;-43
2022/11/23 04:10:21;;;;;;;;;;;21.00;88.60;;;;;;5095330;28;20018;-42
2022/11/23 04:12:50;;;;;;;;;;;21.00;88.60;;;;;;5095533;28;20002;-42
2022/11/23 04:15:16;;;;;;;;;;;21.00;88.70;;;;;;5095415;28;19987;-44
2022/11/23 04:17:41;;;;;;;;;;;21.00;88.60;;;;;;5095524;28;19954;-44
2022/11/23 04:20:07;;;;;;;;;;;21.00;88.70;;;;;;5095140;28;20375;-43
2022/11/23 04:22:33;;;;;;;;;;;21.00;88.70;;;;;;5095146;28;19951;-42
2022/11/23 04:24:58;;;;;;;;;;;21.00;88.60;;;;;;5094957;28;19916;-41
2022/11/23 04:27:23;;;;;;;;;;;21.00;88.70;;;;;;5095578;28;19915;-43
2022/11/23 04:29:49;;;;;;;;;;;21.00;88.60;;;;;;5076993;28;20282;-47
2022/11/23 04:32:14;;;;;;;;;;;21.00;88.60;;;;;;5094818;28;19908;-41
2022/11/23 04:34:40;;;;;;;;;;;21.00;88.90;;;;;;5076844;28;20373;-42
2022/11/23 04:37:05;;;;;;;;;;;21.00;88.70;;;;;;5095051;28;20303;-41
2022/11/23 04:39:31;;;;;;;;;;;21.00;88.60;;;;;;5094812;28;19908;-43
2022/11/23 04:41:56;;;;;;;;;;;21.00;88.70;;;;;;5095000;28;19908;-43
2022/11/23 04:44:22;;;;;;;;;;;21.00;88.60;;;;;;5094695;28;19908;-42
2022/11/23 04:46:49;;;;;;;;;;;21.00;88.60;;;;;;5094835;28;19974;-42
2022/11/23 04:49:15;;;;;;;;;;;21.10;88.70;;;;;;5094842;28;19951;-43
2022/11/23 04:51:40;;;;;;;;;;;21.00;88.60;;;;;;5094738;28;20377;-42
2022/11/23 04:54:06;;;;;;;;;;;21.10;88.60;;;;;;5094569;28;20363;-42
2022/11/23 04:56:32;;;;;;;;;;;21.10;88.60;;;;;;5094366;28;20270;-42
2022/11/23 04:58:57;;;;;;;;;;;21.00;88.50;;;;;;5094616;28;20347;-43
2022/11/23 05:01:22;;;;;;;;;;;21.00;88.50;;;;;;5094578;28;19912;-45
2022/11/23 05:03:48;;;;;;;;;;;21.00;88.50;;;;;;5094489;28;20359;-43
2022/11/23 05:06:13;;;;;;;;;;;21.00;88.40;;;;;;5094235;28;19916;-42
2022/11/23 05:08:39;;;;;;;;;;;21.10;88.60;;;;;;5094169;28;20020;-42
2022/11/23 05:11:04;;;;;;;;;;;21.10;88.60;;;;;;5094437;28;19908;-44
2022/11/23 05:13:30;;;;;;;;;;;21.00;88.50;;;;;;5094044;28;19915;-43
2022/11/23 05:15:55;;;;;;;;;;;21.10;88.60;;;;;;5094076;28;19995;-45
2022/11/23 05:18:21;;;;;;;;;;;21.10;88.60;;;;;;5094236;28;20278;-45
2022/11/23 05:20:46;;;;;;;;;;;21.10;88.50;;;;;;5094082;28;19955;-45
2022/11/23 05:23:12;;;;;;;;;;;21.10;88.60;;;;;;5093921;28;19915;-42
2022/11/23 05:25:37;;;;;;;;;;;21.10;88.70;;;;;;5094205;28;19917;-42
2022/11/23 05:28:03;;;;;;;;;;;21.00;88.70;;;;;;5094551;28;19908;-42
2022/11/23 05:30:28;;;;;;;;;;;21.00;88.70;;;;;;5094160;28;19908;-42
2022/11/23 05:32:58;;;;;;;;;;;21.00;88.70;;;;;;5094104;28;19999;-45
2022/11/23 05:35:24;;;;;;;;;;;21.00;88.80;;;;;;5093994;28;19908;-42
2022/11/23 05:37:49;;;;;;;;;;;21.10;88.80;;;;;;5094351;28;19934;-42
2022/11/23 05:40:14;;;;;;;;;;;21.10;88.70;;;;;;5093986;28;19908;-43
2022/11/23 05:42:40;;;;;;;;;;;21.00;88.80;;;;;;5094051;28;19916;-42
2022/11/23 05:45:05;;;;;;;;;;;21.10;88.80;;;;;;5093863;28;20367;-44
2022/11/23 05:47:31;;;;;;;;;;;21.00;88.70;;;;;;5094084;28;19908;-43
2022/11/23 05:49:56;;;;;;;;;;;21.10;88.70;;;;;;5093989;28;19908;-43
2022/11/23 05:52:23;;;;;;;;;;;21.00;88.60;;;;;;5075842;28;19908;-44
2022/11/23 05:54:49;;;;;;;;;;;21.00;88.70;;;;;;5093643;28;20348;-43
2022/11/23 05:57:14;;;;;;;;;;;21.10;88.80;;;;;;5093819;28;19912;-43
2022/11/23 05:59:40;;;;;;;;;;;21.00;88.70;;;;;;5093698;28;19908;-44
2022/11/23 06:02:05;;;;;;;;;;;21.00;88.70;;;;;;5093476;28;19912;-43
2022/11/23 06:04:31;;;;;;;;;;;21.00;88.80;;;;;;5093746;28;19969;-41
2022/11/23 06:06:59;;;;;;;;;;;21.10;88.90;;;;;;5093574;28;19916;-41
2022/11/23 06:09:28;;;;;;;;;;;21.00;88.80;;;;;;5096017;28;20299;-42
2022/11/23 06:11:54;;;;;;;;;;;21.00;88.80;;;;;;5097474;28;19908;-44
2022/11/23 06:14:19;;;;;;;;;;;21.00;88.90;;;;;;5097788;28;19965;-45
2022/11/23 06:16:45;;;;;;;;;;;21.00;88.80;;;;;;5097256;28;20381;-45
2022/11/23 06:19:10;;;;;;;;;;;21.00;88.80;;;;;;5097363;28;19908;-43
2022/11/23 06:21:36;;;;;;;;;;;21.00;88.80;;;;;;5097493;28;19908;-43
2022/11/23 06:24:01;;;;;;;;;;;21.00;88.80;;;;;;5097629;28;19916;-42
2022/11/23 06:26:27;;;;;;;;;;;21.00;88.80;;;;;;5097033;28;19963;-41
2022/11/23 06:28:52;;;;;;;;;;;21.00;88.70;;;;;;5096938;28;19908;-42
2022/11/23 06:31:18;;;;;;;;;;;21.00;88.60;;;;;;5097135;28;19951;-42
2022/11/23 06:33:43;;;;;;;;;;;21.00;88.60;;;;;;5097205;28;19908;-44
2022/11/23 06:36:09;;;;;;;;;;;21.00;88.50;;;;;;5096894;28;19919;-42
2022/11/23 06:38:35;;;;;;;;;;;21.00;88.40;;;;;;5077282;28;19961;-44
2022/11/23 06:41:01;;;;;;;;;;;21.00;88.30;;;;;;5096942;28;19912;-45
2022/11/23 06:43:27;;;;;;;;;;;21.10;88.30;;;;;;5078959;28;19908;-43
2022/11/23 06:45:53;;;;;;;;;;;21.10;88.30;;;;;;5103963;28;19927;-47
2022/11/23 06:48:19;;;;;;;;;;;21.10;88.20;;;;;;5104940;28;20127;-44
2022/11/23 06:50:44;;;;;;;;;;;21.20;88.20;;;;;;5099030;28;19964;-42
2022/11/23 06:53:11;;;;;;;;;;;21.20;88.10;;;;;;5103604;28;19972;-40
2022/11/23 06:55:36;;;;;;;;;;;21.20;85.20;;;;;;5085279;28;19915;-40
2022/11/23 06:58:02;;;;;;;;;;;21.00;82.10;;;;;;5106218;28;19911;-41
2022/11/23 07:00:27;;;;;;;;;;;20.80;81.60;;;;;;5106625;28;19912;-41
2022/11/23 07:02:54;;;;;;;;;;;20.70;81.70;;;;;;5089861;28;19912;-43
2022/11/23 07:05:19;;;;;;;;;;;20.70;83.50;;;;;;5116874;28;20031;-41
2022/11/23 07:07:45;;;;;;;;;;;20.90;85.50;;;;;;5111890;28;20377;-41
2022/11/23 07:10:11;;;;;;;;;;;20.90;85.10;;;;;;5104564;28;19973;-40
2022/11/23 07:12:36;;;;;;;;;;;21.00;85.80;;;;;;5110140;28;20002;-43
2022/11/23 07:15:02;;;;;;;;;;;21.00;86.30;;;;;;5112515;28;19911;-42
2022/11/23 07:17:27;;;;;;;;;;;21.00;86.60;;;;;;5113763;28;19972;-42
2022/11/23 07:19:53;;;;;;;;;;;21.10;87.00;;;;;;5099072;28;20317;-45
2022/11/23 07:22:18;;;;;;;;;;;21.20;87.30;;;;;;5100434;28;20398;-42
2022/11/23 07:24:44;;;;;;;;;;;21.10;84.80;;;;;;5092421;28;19980;-41
2022/11/23 07:27:09;;;;;;;;;;;21.20;85.70;;;;;;5116384;28;19963;-41
2022/11/23 07:29:35;;;;;;;;;;;21.30;86.90;;;;;;5116513;28;19915;-41
2022/11/23 07:32:00;;;;;;;;;;;21.50;87.00;;;;;;5116357;28;20406;-41
2022/11/23 07:34:26;;;;;;;;;;;21.50;86.80;;;;;;5116042;28;19908;-42
2022/11/23 07:36:52;;;;;;;;;;;21.60;86.70;;;;;;5116373;28;19946;-41
2022/11/23 07:39:17;;;;;;;;;;;21.70;86.60;;;;;;5116218;28;19915;-41
2022/11/23 07:41:43;;;;;;;;;;;21.70;86.50;;;;;;5115994;28;20048;-41
2022/11/23 07:44:08;;;;;;;;;;;21.70;86.40;;;;;;5116570;28;19908;-41
2022/11/23 07:46:34;;;;;;;;;;;21.70;86.40;;;;;;5116057;28;20380;-41
2022/11/23 07:49:01;;;;;;;;;;;21.80;86.40;;;;;;5115993;28;19919;-44
2022/11/23 07:51:27;;;;;;;;;;;21.80;86.40;;;;;;5116049;28;19912;-41
2022/11/23 07:53:52;;;;;;;;;;;21.80;86.40;;;;;;5116300;28;19919;-41
2022/11/23 07:56:18;;;;;;;;;;;21.70;86.40;;;;;;5115751;28;19912;-41
2022/11/23 07:58:43;;;;;;;;;;;21.70;86.50;;;;;;5115654;28;20316;-41
2022/11/23 08:01:13;;;;;;;;;;;21.70;86.50;;;;;;5115671;28;20361;-41
2022/11/23 08:03:38;;;;;;;;;;;21.70;86.50;;;;;;5115765;28;20316;-41
2022/11/23 08:06:08;;;;;;;;;;;21.70;86.60;;;;;;5115440;28;19915;-41
2022/11/23 08:08:34;;;;;;;;;;;21.70;86.60;;;;;;5115348;28;19965;-41
2022/11/23 08:10:59;;;;;;;;;;;21.70;86.60;;;;;;5115808;28;20289;-41
2022/11/23 08:13:25;;;;;;;;;;;21.70;86.70;;;;;;5097605;28;19915;-45
2022/11/23 08:15:50;;;;;;;;;;;21.70;86.60;;;;;;5097501;28;20243;-41
2022/11/23 08:18:16;;;;;;;;;;;21.70;86.60;;;;;;5115484;28;19908;-41
2022/11/23 08:20:41;;;;;;;;;;;21.70;86.60;;;;;;5115585;28;19908;-41
2022/11/23 08:23:07;;;;;;;;;;;21.70;86.50;;;;;;5115509;28;19914;-41
2022/11/23 08:25:32;;;;;;;;;;;21.70;86.50;;;;;;5115522;28;19920;-41
2022/11/23 08:27:59;;;;;;;;;;;21.70;86.50;;;;;;5115212;28;19931;-43
2022/11/23 08:30:25;;;;;;;;;;;21.70;86.50;;;;;;5114985;28;20266;-41
2022/11/23 08:32:51;;;;;;;;;;;21.70;86.40;;;;;;5114748;28;19995;-41
2022/11/23 08:35:16;;;;;;;;;;;21.80;86.40;;;;;;5114947;28;19943;-41
2022/11/23 08:37:41;;;;;;;;;;;21.80;86.30;;;;;;5115282;28;19953;-41
2022/11/23 08:40:07;;;;;;;;;;;21.80;86.30;;;;;;5114833;28;19915;-41
2022/11/23 08:42:33;;;;;;;;;;;21.80;86.20;;;;;;5115117;28;19912;-41
2022/11/23 08:44:59;;;;;;;;;;;21.90;86.10;;;;;;5115027;28;19911;-41
2022/11/23 08:47:24;;;;;;;;;;;21.90;85.90;;;;;;5114972;28;19952;-42
2022/11/23 08:49:50;;;;;;;;;;;22.00;85.90;;;;;;5114644;28;19996;-41
2022/11/23 08:52:15;;;;;;;;;;;22.00;85.70;;;;;;5114605;28;19908;-41
2022/11/23 08:54:41;;;;;;;;;;;22.00;85.60;;;;;;5114513;28;19908;-41
2022/11/23 08:57:06;;;;;;;;;;;22.10;85.60;;;;;;5114662;28;19908;-41
2022/11/23 08:59:33;;;;;;;;;;;22.10;85.50;;;;;;5114764;28;19931;-41
2022/11/23 09:01:58;;;;;;;;;;;22.10;85.50;;;;;;5114732;28;19908;-42
2022/11/23 09:04:26;;;;;;;;;;;22.10;85.50;;;;;;5114549;28;19914;-41
2022/11/23 09:06:52;;;;;;;;;;;22.10;85.40;;;;;;5114351;28;19938;-41
2022/11/23 09:09:17;;;;;;;;;;;22.10;85.50;;;;;;5114217;28;20006;-43
2022/11/23 09:11:43;;;;;;;;;;;22.00;85.40;;;;;;5114680;28;19908;-41
2022/11/23 09:14:09;;;;;;;;;;;22.00;85.50;;;;;;5096185;28;19908;-42
2022/11/23 09:16:34;;;;;;;;;;;22.00;85.50;;;;;;5114148;28;19915;-41
2022/11/23 09:19:00;;;;;;;;;;;22.00;85.60;;;;;;5114204;28;20343;-41
2022/11/23 09:21:29;;;;;;;;;;;22.00;85.60;;;;;;5114277;28;19907;-41
2022/11/23 09:23:55;;;;;;;;;;;22.00;85.60;;;;;;5114247;28;19915;-41
2022/11/23 09:26:21;;;;;;;;;;;22.00;85.60;;;;;;5114278;28;20373;-41
2022/11/23 09:28:46;;;;;;;;;;;22.00;85.60;;;;;;5114601;28;19908;-41
2022/11/23 09:31:12;;;;;;;;;;;22.00;85.50;;;;;;5114455;28;20016;-41
2022/11/23 09:33:37;;;;;;;;;;;22.00;85.50;;;;;;5096058;28;19908;-41
2022/11/23 09:36:03;;;;;;;;;;;22.00;85.40;;;;;;5114433;28;19919;-42
2022/11/23 09:38:29;;;;;;;;;;;22.10;85.50;;;;;;5114411;28;20228;-41
2022/11/23 09:41:06;;;;;;;;;;;22.00;85.40;;;;;;5096061;28;20358;-41
2022/11/23 09:43:55;;;;;;;;;;;22.00;85.40;;;;;;5113731;28;19950;-42
2022/11/23 09:46:24;;;;;;;;;;;22.00;85.40;;;;;;5066434;28;19920;-41
2022/11/23 09:48:50;;;;;;;;;;;22.00;85.50;;;;;;5114252;28;19918;-42
2022/11/23 09:51:17;;;;;;;;;;;22.10;85.40;;;;;;5113943;28;20002;-42
2022/11/23 09:53:48;;;;;;;;;;;22.10;85.40;;;;;;5114249;28;19930;-41
2022/11/23 09:56:27;;;;;;;;;;;22.10;85.40;;;;;;5114033;28;20378;-42
2022/11/23 09:58:58;;;;;;;;;;;22.10;85.40;;;;;;5114083;28;20007;-41
2022/11/23 10:01:26;;;;;;;;;;;22.10;85.40;;;;;;5113638;28;19923;-42
2022/11/23 10:03:51;;;;;;;;;;;22.10;85.90;;;;;;5113823;28;19908;-42
2022/11/23 10:06:22;;;;;;;;;;;22.10;85.30;;;;;;5113939;28;19923;-42
2022/11/23 10:08:51;;;;;;;;;;;22.10;85.30;;;;;;5113850;28;20278;-41
2022/11/23 10:11:30;;;;;;;;;;;22.10;85.20;;;;;;5114218;28;19908;-42
2022/11/23 10:13:55;;;;;;;;;;;22.10;85.20;;;;;;5114517;28;19977;-43
2022/11/23 10:16:27;;;;;;;;;;;22.10;85.20;;;;;;5113637;28;20358;-40
2022/11/23 10:19:04;;;;;;;;;;;22.10;85.10;;;;;;5113721;28;19912;-39
2022/11/23 10:21:52;;;;;;;;;;;22.10;85.10;;;;;;5113740;28;19955;-40
2022/11/23 10:24:20;;;;;;;;;;;22.10;85.10;;;;;;5100269;28;19908;-40
2022/11/23 10:26:47;;;;;;;;;;;22.10;85.10;;;;;;5113671;28;19928;-40
2022/11/23 10:29:33;;;;;;;;;;;22.10;85.10;;;;;;5113404;28;20296;-40
2022/11/23 10:31:59;;;;;;;;;;;22.10;85.10;;;;;;5113646;28;20007;-41
2022/11/23 10:34:54;;;;;;;;;;;22.10;85.10;;;;;;5113319;28;19908;-41
2022/11/23 10:37:20;;;;;;;;;;;22.10;85.20;;;;;;5091135;28;19912;-42
2022/11/23 10:39:45;;;;;;;;;;;22.10;85.10;;;;;;5095300;28;19907;-42
2022/11/23 10:42:17;;;;;;;;;;;22.10;85.20;;;;;;5095237;28;19999;-42
2022/11/23 10:44:45;;;;;;;;;;;22.10;85.20;;;;;;5113436;28;19915;-41
2022/11/23 10:47:10;;;;;;;;;;;22.10;85.20;;;;;;5113415;28;20057;-41
2022/11/23 10:49:35;;;;;;;;;;;22.10;85.20;;;;;;5113420;28;19946;-42
2022/11/23 10:52:04;;;;;;;;;;;22.00;85.20;;;;;;5113714;28;19908;-43
2022/11/23 10:54:32;;;;;;;;;;;22.00;85.20;;;;;;5114427;28;19912;-41
2022/11/23 10:56:58;;;;;;;;;;;22.00;85.20;;;;;;5099084;28;19908;-42
2022/11/23 10:59:26;;;;;;;;;;;22.00;85.20;;;;;;5117232;28;19912;-41
2022/11/23 11:02:09;;;;;;;;;;;22.10;85.20;;;;;;5116983;28;19915;-44
2022/11/23 11:04:34;;;;;;;;;;;22.10;85.30;;;;;;5117125;28;20004;-43
2022/11/23 11:07:29;;;;;;;;;;;22.10;85.10;;;;;;5116933;28;19959;-41
2022/11/23 11:09:56;;;;;;;;;;;22.20;85.00;;;;;;5094459;28;19926;-41
2022/11/23 11:12:23;;;;;;;;;;;22.20;84.90;;;;;;5116939;28;19907;-41
2022/11/23 11:15:01;;;;;;;;;;;22.20;84.80;;;;;;5116825;28;19908;-41
2022/11/23 11:17:31;;;;;;;;;;;22.30;84.80;;;;;;5116909;28;20352;-41
2022/11/23 11:19:56;;;;;;;;;;;22.20;84.70;;;;;;5116927;28;19908;-41
2022/11/23 11:22:26;;;;;;;;;;;22.30;84.70;;;;;;5098469;28;20364;-41
2022/11/23 11:24:52;;;;;;;;;;;22.20;84.70;;;;;;5116345;28;19908;-41
2022/11/23 11:27:22;;;;;;;;;;;22.20;84.70;;;;;;5098283;28;19915;-42
2022/11/23 11:29:49;;;;;;;;;;;22.20;84.70;;;;;;5116907;28;20002;-41
2022/11/23 11:32:22;;;;;;;;;;;22.20;84.70;;;;;;5116680;28;19908;-41
2022/11/23 11:34:53;;;;;;;;;;;22.20;84.70;;;;;;5116293;28;20301;-43
2022/11/23 11:37:29;;;;;;;;;;;22.20;84.70;;;;;;5116162;28;19915;-41
2022/11/23 11:39:56;;;;;;;;;;;22.20;84.60;;;;;;5116268;28;20061;-42
2022/11/23 11:42:37;;;;;;;;;;;22.20;84.60;;;;;;5116085;28;19915;-41
2022/11/23 11:45:05;;;;;;;;;;;22.20;84.60;;;;;;5116327;28;19912;-41
2022/11/23 11:47:32;;;;;;;;;;;22.20;84.50;;;;;;5115957;28;19908;-42
2022/11/23 11:50:00;;;;;;;;;;;22.30;84.50;;;;;;5115988;28;19954;-42
2022/11/23 11:52:31;;;;;;;;;;;22.30;84.40;;;;;;5116221;28;19931;-41
2022/11/23 11:55:11;;;;;;;;;;;22.30;84.40;;;;;;5115575;28;19915;-41
2022/11/23 11:57:39;;;;;;;;;;;22.30;84.40;;;;;;5116134;28;19930;-42
2022/11/23 12:00:09;;;;;;;;;;;22.30;84.40;;;;;;5115763;28;19973;-41
2022/11/23 12:02:34;;;;;;;;;;;22.30;84.40;;;;;;5115474;28;19908;-41
2022/11/23 12:05:20;;;;;;;;;;;22.30;84.40;;;;;;5115401;28;19907;-42
2022/11/23 12:07:52;;;;;;;;;;;22.20;84.50;;;;;;5096764;28;19908;-41
2022/11/23 12:10:20;;;;;;;;;;;22.20;84.50;;;;;;5115653;28;19981;-40
2022/11/23 12:12:47;;;;;;;;;;;22.20;84.60;;;;;;5115584;28;20412;-40
2022/11/23 12:15:19;;;;;;;;;;;22.10;84.60;;;;;;5115782;28;19934;-40
2022/11/23 12:18:08;;;;;;;;;;;22.10;84.60;;;;;;5097198;28;19908;-40
2022/11/23 12:20:36;;;;;;;;;;;22.10;84.70;;;;;;5050040;28;19908;-41
2022/11/23 12:23:04;;;;;;;;;;;22.10;84.70;;;;;;5115271;28;19908;-41
2022/11/23 12:25:35;;;;;;;;;;;22.10;84.80;;;;;;5115173;28;19919;-43
2022/11/23 12:28:04;;;;;;;;;;;22.10;84.70;;;;;;5114844;28;20259;-41
2022/11/23 12:30:35;;;;;;;;;;;22.10;84.70;;;;;;5115156;28;19912;-40
2022/11/23 12:33:19;;;;;;;;;;;22.10;84.70;;;;;;5115043;28;19908;-41
2022/11/23 12:36:03;;;;;;;;;;;22.10;84.60;;;;;;5115087;28;19908;-41
2022/11/23 12:38:30;;;;;;;;;;;22.10;84.60;;;;;;5114892;28;20359;-41
2022/11/23 12:41:05;;;;;;;;;;;22.20;84.50;;;;;;5114917;28;19908;-42
2022/11/23 12:43:36;;;;;;;;;;;22.20;84.50;;;;;;5114981;28;19918;-44
2022/11/23 12:46:04;;;;;;;;;;;22.10;84.50;;;;;;5114920;28;19915;-42
2022/11/23 12:48:30;;;;;;;;;;;22.10;84.50;;;;;;5115161;28;20313;-41
2022/11/23 12:51:14;;;;;;;;;;;22.10;84.60;;;;;;5114677;28;19968;-41
2022/11/23 12:53:57;;;;;;;;;;;22.10;84.60;;;;;;5114511;28;19998;-41
2022/11/23 12:56:28;;;;;;;;;;;22.10;84.70;;;;;;5114555;28;19957;-42
2022/11/23 12:58:54;;;;;;;;;;;22.00;84.70;;;;;;5114488;28;19958;-42
2022/11/23 13:01:31;;;;;;;;;;;22.00;84.80;;;;;;5114438;28;19912;-41
2022/11/23 13:04:07;;;;;;;;;;;21.90;84.90;;;;;;5096431;28;20297;-41
2022/11/23 13:06:42;;;;;;;;;;;21.90;84.90;;;;;;5114574;28;19922;-41
2022/11/23 13:09:19;;;;;;;;;;;21.90;85.00;;;;;;5114527;28;20007;-41
2022/11/23 13:12:03;;;;;;;;;;;21.90;85.10;;;;;;5114618;28;20320;-41
2022/11/23 13:15:01;;;;;;;;;;;21.80;85.10;;;;;;5114449;28;19912;-43
2022/11/23 13:17:47;;;;;;;;;;;21.80;85.20;;;;;;5057902;28;19908;-41
2022/11/23 13:20:22;;;;;;;;;;;21.80;85.20;;;;;;5114437;28;19915;-42
2022/11/23 13:22:48;;;;;;;;;;;21.80;85.20;;;;;;5114054;28;19930;-41
2022/11/23 13:25:14;;;;;;;;;;;21.80;85.20;;;;;;5114163;28;19915;-41
2022/11/23 13:27:39;;;;;;;;;;;21.80;85.20;;;;;;5114290;28;19911;-41
2022/11/23 13:30:20;;;;;;;;;;;21.80;85.20;;;;;;5114406;28;19915;-42
2022/11/23 13:32:52;;;;;;;;;;;21.80;85.20;;;;;;5114070;28;19908;-43
2022/11/23 13:35:17;;;;;;;;;;;21.80;85.20;;;;;;5114316;28;19947;-43
2022/11/23 13:37:55;;;;;;;;;;;21.80;85.20;;;;;;5114297;28;19939;-41
2022/11/23 13:40:30;;;;;;;;;;;21.80;85.30;;;;;;5114366;28;20245;-41
2022/11/23 13:42:58;;;;;;;;;;;21.80;85.30;;;;;;5114163;28;19983;-41
2022/11/23 13:45:25;;;;;;;;;;;21.70;85.20;;;;;;5114200;28;20386;-41
2022/11/23 13:48:09;;;;;;;;;;;21.70;85.20;;;;;;5113925;28;19908;-42
2022/11/23 13:50:36;;;;;;;;;;;21.70;85.30;;;;;;5114243;28;19908;-41
2022/11/23 13:53:02;;;;;;;;;;;21.70;85.40;;;;;;5114602;28;19908;-46
2022/11/23 13:55:33;;;;;;;;;;;21.60;85.30;;;;;;5113644;28;19908;-41
2022/11/23 13:58:17;;;;;;;;;;;21.60;85.40;;;;;;5113649;28;19908;-40
2022/11/23 14:00:43;;;;;;;;;;;21.70;85.40;;;;;;5113990;28;20269;-41
2022/11/23 14:03:27;;;;;;;;;;;21.70;85.30;;;;;;5114093;28;19954;-41
2022/11/23 14:05:55;;;;;;;;;;;21.70;85.20;;;;;;5113488;28;19916;-41
2022/11/23 14:08:21;;;;;;;;;;;21.80;85.20;;;;;;5113679;28;19920;-41
2022/11/23 14:10:48;;;;;;;;;;;21.80;85.40;;;;;;5113899;28;20212;-41
2022/11/23 14:13:16;;;;;;;;;;;21.80;85.00;;;;;;5113751;28;19915;-41
2022/11/23 14:15:44;;;;;;;;;;;21.90;85.00;;;;;;5113681;28;20267;-41
2022/11/23 14:18:29;;;;;;;;;;;21.90;84.80;;;;;;5113604;28;20010;-41
2022/11/23 14:21:06;;;;;;;;;;;22.00;84.70;;;;;;5113965;28;19907;-41